• Join FlightAware (Why Join?)
  • Login
  • US Flag 
12:30AM EDT


 

Airport Tracker/Info


-or-


 

Live Flight TrackerFlight Track Log ✈ N77NJ ✈ 01-May-2012 ✈ MZBZ / BZE - KFLL

Flight Track Log - Related Links

Times and Time Zones

All times are in EDT time to prevent confusion due to time zone crossing. See the N77NJ flight status page for this flight to view local times or setup timezone preferences in your user account.

Time Position Orientation Groundspeed Altitude Reporting Facility
EDT Latitude Longitude Course Direction KTS MPH feet Rate Location/Type
11:01PM 18.7733 -87.2451 39° Northeast  Level FlightAware Approximate
11:02PM 18.8587 -87.1708 39° Northeast  Level FlightAware Approximate
11:03PM 18.9441 -87.0964 39° Northeast  Level FlightAware Approximate
11:04PM 19.0294 -87.0220 40° Northeast  Level FlightAware Approximate
11:05PM 23.5006 -82.9625 65° Northeast 432 497 41,000  Level Miami Center
11:06PM 23.5583 -82.8269 33° Northeast 456 525 41,000  Level Miami Center
11:07PM 23.6656 -82.7506 32° Northeast 431 496 41,000  Level Miami Center
11:08PM 23.7728 -82.6761 32° Northeast 436 502 41,000  Level Miami Center
11:09PM 23.8803 -82.6017 34° Northeast 449 517 41,000  Level Miami Center
11:10PM 23.9853 -82.5247 46° Northeast 449 517 41,000  Level Miami Center
11:11PM 24.0747 -82.4219 43° Northeast 449 517 41,000  Level Miami Center
11:12PM 24.1617 -82.3322 47° Northeast 463 533 41,000  Level Miami Center
11:13PM 24.2511 -82.2269 45° Northeast 468 539 41,000  Level Miami Center
11:14PM 24.3425 -82.1261 45° Northeast 468 539 41,000 -840 Level Miami Center
11:15PM 24.4336 -82.0250 45° Northeast 463 533 39,400 -2,100 Descending Miami Center
11:16PM 24.5269 -81.9239 46° Northeast 463 533 36,900 -2,700 Descending Miami Center
11:17PM 24.6247 -81.8114 45° Northeast 463 533 34,000 -2,760 Descending Miami Center
11:18PM 24.7200 -81.7078 48° Northeast 469 540 31,400 -2,100 Descending Miami Center
11:19PM 24.7961 -81.6147 44° Northeast 464 534 29,800 -1,800 Descending Miami Center
11:20PM 24.8869 -81.5175 46° Northeast 459 528 27,900 -2,040 Descending Miami Center
11:21PM 24.9756 -81.4156 46° Northeast 454 522 25,900 -2,160 Descending Miami Center
11:22PM 25.0644 -81.3133 46° Northeast 459 528 23,600 -2,700 Descending Miami Center
11:23PM 25.1572 -81.2089 46° Northeast 465 535 20,500 -2,880 Descending Miami Center
11:24PM 25.2436 -81.1108 46° Northeast 459 528 17,800 -2,940 Descending Miami Center
11:25PM 25.3258 -81.0150 47° Northeast 442 509 14,700 -3,240 Descending Miami Center
11:26PM 25.3972 -80.9300 45° Northeast 409 471 11,800 -2,220 Descending Miami Center
11:27PM 25.4747 -80.8428 45° Northeast 366 421 10,500 -1,380 Descending Miami Center
11:28PM 25.5328 -80.7781 47° Northeast 295 339 9,100 -1,320 Descending Miami Center
11:29PM 25.5847 -80.7153 46° Northeast 272 313 8,000 -540 Descending Miami Center
11:30PM 25.6386 -80.6525 47° Northeast 273 314 8,000  Level Miami Center
11:31PM 25.6922 -80.5894 47° Northeast 286 329 8,000 -180 Level Miami Center
11:32PM 25.7439 -80.5289 44° Northeast 272 313 7,700 -1,080 Descending Miami Center
11:33PM 25.7978 -80.4706 47° Northeast 275 316 5,800 -1,740 Descending Miami Center
11:34PM 25.8492 -80.4097 45° Northeast 267 307 4,300 -1,200 Descending Miami Center
11:35PM 25.9008 -80.3514 42° Northeast 264 304 3,400 -660 Descending Miami Center
11:36PM 25.9564 -80.2953 42° Northeast 253 291 3,000 -780 Descending Miami Center
11:37PM 25.9992 -80.2525 16° North 235 270 1,900 -840 Descending Miami Center
11:38PM 26.0581 -80.2333 57° Northeast 200 230 1,500 -600 Descending Miami Center
11:39PM 26.0756 -80.2036 57° Northeast 135 155 700 -780 Descending Miami Center